Time;durP1;ratioP1;P1;durP2;ratioP2;P2;SDS_P1;SDS_P2;PMS_P1;PMS_P2;Temp;Humidity;BMP_temperature;BMP_pressure;BME280_temperature;BME280_humidity;BME280_pressure;Samples;Min_cycle;Max_cycle;Signal;HPM_P1;HPM_P2
2020/12/23 00:01:04;;;;;;;3.52;1.80;;;;;;;8.70;95.31;99975.11;1667165;84;26354;-80
2020/12/23 00:03:33;;;;;;;3.70;2.00;;;;;;;8.63;95.08;99979.67;1678831;84;25949;-80
2020/12/23 00:05:59;;;;;;;2.83;1.75;;;;;;;8.60;95.06;99976.58;1678105;84;26275;-80
2020/12/23 00:08:26;;;;;;;2.30;1.57;;;;;;;8.55;94.97;99967.94;1665704;84;26549;-79
2020/12/23 00:10:52;;;;;;;3.45;1.95;;;;;;;8.52;94.38;99981.78;1674417;84;26284;-80
2020/12/23 00:13:19;;;;;;;4.67;1.85;;;;;;;8.44;94.20;99982.08;1679504;83;25929;-80
2020/12/23 00:15:46;;;;;;;2.12;1.25;;;;;;;8.42;94.15;99987.94;1677798;84;25753;-80
2020/12/23 00:18:12;;;;;;;2.08;1.32;;;;;;;8.36;93.54;99984.64;1665050;84;25284;-80
2020/12/23 00:20:38;;;;;;;2.98;1.50;;;;;;;8.32;92.91;99991.63;1677301;84;25318;-80
2020/12/23 00:23:05;;;;;;;2.58;1.10;;;;;;;8.28;93.04;99993.73;1677069;84;25734;-80
2020/12/23 00:25:31;;;;;;;2.65;1.50;;;;;;;8.25;92.74;99998.46;1674306;85;25820;-79
2020/12/23 00:27:58;;;;;;;2.05;1.40;;;;;;;8.23;93.01;99995.51;1677887;83;26899;-79
2020/12/23 00:30:24;;;;;;;2.08;1.30;;;;;;;8.21;92.85;99996.64;1673051;84;25792;-79
2020/12/23 00:32:51;;;;;;;2.27;1.40;;;;;;;8.20;92.99;100006.73;1676211;83;25748;-79
2020/12/23 00:35:17;;;;;;;3.12;1.30;;;;;;;8.18;92.56;100008.21;1674735;83;25820;-80
2020/12/23 00:37:44;;;;;;;2.02;1.22;;;;;;;8.13;91.98;100006.56;1674274;85;25606;-79
2020/12/23 00:40:10;;;;;;;3.42;1.22;;;;;;;8.11;92.12;100010.30;1674220;84;26444;-79
2020/12/23 00:42:36;;;;;;;2.35;1.37;;;;;;;8.11;92.32;100025.42;1678490;84;26336;-79
2020/12/23 00:45:03;;;;;;;4.35;1.40;;;;;;;8.09;92.15;100020.85;1673307;84;25916;-79
2020/12/23 00:47:30;;;;;;;2.45;1.40;;;;;;;8.08;92.08;100015.82;1674462;84;25779;-79
2020/12/23 00:49:56;;;;;;;3.20;1.40;;;;;;;8.08;92.18;100026.23;1674960;85;25800;-78
2020/12/23 00:52:23;;;;;;;3.75;1.77;;;;;;;8.05;92.05;100034.33;1676185;84;26796;-80
2020/12/23 00:54:49;;;;;;;1.92;1.50;;;;;;;8.04;92.21;100029.61;1677048;84;26307;-79
2020/12/23 00:57:17;;;;;;;2.85;1.60;;;;;;;8.03;92.01;100034.98;1675000;84;25342;-79
2020/12/23 00:59:44;;;;;;;4.67;1.87;;;;;;;7.99;92.06;100040.52;1676414;84;25796;-79
2020/12/23 01:02:10;;;;;;;3.58;1.50;;;;;;;7.99;92.07;100046.17;1674431;83;25696;-79
2020/12/23 01:04:37;;;;;;;3.50;1.22;;;;;;;7.97;91.85;100054.16;1673574;84;25711;-78
2020/12/23 01:07:03;;;;;;;2.08;1.47;;;;;;;7.97;91.81;100058.55;1674830;84;25895;-79
2020/12/23 01:09:29;;;;;;;2.58;1.40;;;;;;;7.96;91.36;100056.91;1674007;84;26516;-79
2020/12/23 01:11:56;;;;;;;2.27;1.30;;;;;;;7.93;91.14;100061.93;1676328;83;26294;-79
2020/12/23 01:14:22;;;;;;;2.40;1.20;;;;;;;7.92;91.04;100069.42;1676568;84;26686;-79
2020/12/23 01:16:49;;;;;;;2.42;1.20;;;;;;;7.91;91.33;100072.16;1670315;84;25735;-79
2020/12/23 01:19:16;;;;;;;3.30;1.72;;;;;;;7.90;90.83;100081.76;1679435;85;26431;-79
2020/12/23 01:21:45;;;;;;;2.92;1.30;;;;;;;7.88;90.91;100084.19;1679804;84;26172;-78
2020/12/23 01:24:12;;;;;;;1.65;1.20;;;;;;;7.88;90.94;100080.28;1679469;84;25948;-79
2020/12/23 01:26:39;;;;;;;2.45;1.45;;;;;;;7.87;90.66;100083.86;1679218;84;26289;-79
2020/12/23 01:29:06;;;;;;;2.62;1.42;;;;;;;7.84;90.95;100074.58;1685337;84;25740;-80
2020/12/23 01:31:32;;;;;;;3.22;1.57;;;;;;;7.83;90.83;100072.95;1677444;84;25836;-79
2020/12/23 01:33:58;;;;;;;3.22;1.57;;;;;;;7.83;90.73;100082.06;1685858;84;25755;-79
2020/12/23 01:36:25;;;;;;;3.72;1.92;;;;;;;7.81;90.93;100080.59;1674934;84;25697;-79
2020/12/23 01:38:51;;;;;;;3.47;1.55;;;;;;;7.82;91.06;100086.11;1676868;84;26361;-79
2020/12/23 01:41:18;;;;;;;4.10;1.80;;;;;;;7.81;90.96;100077.49;1675148;83;26335;-79
2020/12/23 01:43:54;;;;;;;2.65;1.62;;;;;;;7.81;91.01;100076.69;1675296;84;25743;-79
2020/12/23 01:46:26;;;;;;;3.67;1.85;;;;;;;7.77;90.78;100076.99;1674752;84;26501;-79
2020/12/23 01:48:53;;;;;;;3.08;1.50;;;;;;;7.76;90.99;100070.14;1675524;84;26330;-79
2020/12/23 01:51:19;;;;;;;5.17;1.50;;;;;;;7.78;90.97;100068.70;1673534;85;25486;-78
2020/12/23 01:53:48;;;;;;;2.05;1.35;;;;;;;7.78;90.97;100071.30;1675351;84;25882;-79
2020/12/23 01:56:21;;;;;;;2.33;1.33;;;;;;;7.78;90.92;100060.89;1675088;85;26324;-79
2020/12/23 01:58:49;;;;;;;4.05;1.80;;;;;;;7.63;90.91;100042.42;1673754;84;25821;-79
2020/12/23 02:01:21;;;;;;;3.42;1.80;;;;;;;7.77;90.79;100074.39;1675394;84;26367;-78
2020/12/23 02:03:49;;;;;;;2.72;1.42;;;;;;;7.80;90.93;100073.24;1673823;84;25796;-79
2020/12/23 02:06:16;;;;;;;5.08;2.17;;;;;;;7.80;90.85;100064.13;1667351;85;25659;-79
2020/12/23 02:08:44;;;;;;;5.10;1.98;;;;;;;7.87;90.94;100067.77;1678373;84;25767;-79
2020/12/23 02:11:13;;;;;;;4.90;2.30;;;;;;;7.90;90.88;100074.45;1674803;82;26461;-79
2020/12/23 02:13:42;;;;;;;5.17;2.70;;;;;;;7.89;90.76;100083.23;1697074;84;26332;-79
2020/12/23 02:16:09;;;;;;;4.62;2.35;;;;;;;7.85;90.71;100086.61;1697699;82;25842;-79
2020/12/23 02:18:36;;;;;;;3.90;2.00;;;;;;;7.81;90.50;100082.70;1697578;83;25880;-79
2020/12/23 02:21:03;;;;;;;4.20;1.92;;;;;;;7.75;90.54;100093.23;1697931;84;25659;-79
2020/12/23 02:24:18;;;;;;;2.65;1.77;;;;;;;7.71;90.46;100093.69;1697892;82;26365;-79
2020/12/23 02:26:45;;;;;;;3.77;2.35;;;;;;;7.68;90.58;100086.19;1695159;82;25668;-79
2020/12/23 02:29:11;;;;;;;3.22;1.90;;;;;;;7.68;90.67;100078.38;1697181;84;25761;-79
2020/12/23 02:31:38;;;;;;;2.60;1.77;;;;;;;7.66;90.65;100073.32;1694719;82;25926;-78
2020/12/23 02:34:04;;;;;;;4.05;2.05;;;;;;;7.66;90.69;100078.52;1697394;83;25700;-79
2020/12/23 02:36:30;;;;;;;2.67;1.80;;;;;;;7.65;90.75;100082.11;1696085;82;25769;-79
2020/12/23 02:38:57;;;;;;;5.05;3.75;;;;;;;7.65;90.81;100074.30;1695564;82;25495;-79
2020/12/23 02:41:23;;;;;;;4.03;2.00;;;;;;;7.65;90.69;100076.09;1697971;84;25897;-79
2020/12/23 02:43:50;;;;;;;4.20;2.55;;;;;;;7.64;90.71;100077.88;1696375;84;26326;-79
2020/12/23 02:46:16;;;;;;;3.42;2.30;;;;;;;7.67;90.86;100080.67;1694628;82;26269;-79
2020/12/23 02:48:43;;;;;;;4.33;2.33;;;;;;;7.66;90.64;100091.53;1672308;84;25299;-79
2020/12/23 02:51:09;;;;;;;3.80;2.50;;;;;;;7.62;90.51;100093.31;1695557;83;25738;-79
2020/12/23 02:53:35;;;;;;;4.87;2.85;;;;;;;7.62;90.62;100103.22;1697333;82;25667;-79
2020/12/23 02:56:03;;;;;;;4.95;2.75;;;;;;;7.60;90.59;100103.05;1696169;83;26779;-79
2020/12/23 02:58:30;;;;;;;3.98;2.58;;;;;;;7.58;90.56;100110.98;1694841;82;25738;-79
2020/12/23 03:00:56;;;;;;;5.10;2.70;;;;;;;7.57;90.55;100110.66;1696825;82;25721;-79
2020/12/23 03:03:23;;;;;;;4.28;3.00;;;;;;;7.51;90.34;100110.78;1693782;82;25745;-79
2020/12/23 03:05:49;;;;;;;5.80;3.33;;;;;;;7.48;90.42;100106.38;1694738;82;25778;-79
2020/12/23 03:08:16;;;;;;;6.90;3.72;;;;;;;7.45;90.40;100107.98;1697049;82;25756;-79
2020/12/23 03:28:54;;;;;;;4.62;2.80;;;;;;;7.22;90.25;100098.52;1689310;83;25914;-79
2020/12/23 03:31:21;;;;;;;5.17;3.12;;;;;;;7.16;89.82;100105.13;1694657;83;25710;-79
2020/12/23 03:33:48;;;;;;;8.00;3.25;;;;;;;7.13;90.11;100109.34;1694935;83;26576;-79
2020/12/23 03:36:14;;;;;;;4.47;2.90;;;;;;;7.14;90.31;100113.55;1694212;83;25313;-79
2020/12/23 03:38:41;;;;;;;5.92;3.00;;;;;;;7.14;90.05;100114.05;1691327;83;26408;-79
2020/12/23 03:41:07;;;;;;;4.33;2.33;;;;;;;7.07;90.01;100108.64;1692989;83;25841;-78
2020/12/23 03:43:34;;;;;;;5.10;2.85;;;;;;;7.07;89.86;100122.93;1693921;83;26338;-78
2020/12/23 03:46:00;;;;;;;4.45;2.55;;;;;;;7.02;89.81;100123.36;1694614;83;25690;-78
2020/12/23 03:48:27;;;;;;;4.97;2.42;;;;;;;7.03;89.85;100128.88;1693885;83;25772;-79
2020/12/23 03:50:53;;;;;;;6.62;2.37;;;;;;;6.98;89.69;100129.80;1695218;83;26371;-78
2020/12/23 03:53:21;;;;;;;4.83;2.20;;;;;;;6.94;89.58;100131.56;1694445;83;26408;-79
2020/12/23 03:55:47;;;;;;;4.60;2.22;;;;;;;6.89;89.17;100130.70;1691984;83;26362;-78
2020/12/23 03:58:14;;;;;;;5.60;2.37;;;;;;;6.82;89.35;100136.13;1692518;83;25737;-78
2020/12/23 04:00:40;;;;;;;4.60;2.62;;;;;;;6.78;89.27;100146.00;1692856;83;25814;-79
2020/12/23 04:03:06;;;;;;;5.22;2.80;;;;;;;6.73;89.32;100143.02;1689887;83;25679;-78
2020/12/23 04:05:35;;;;;;;2.62;2.10;;;;;;;6.71;89.19;100146.73;1691949;83;25888;-78
2020/12/23 04:08:01;;;;;;;4.67;2.10;;;;;;;6.65;89.02;100145.05;1691750;83;25719;-78
2020/12/23 04:10:27;;;;;;;3.42;2.10;;;;;;;6.56;89.12;100142.52;1691674;83;26695;-79
2020/12/23 04:12:54;;;;;;;5.15;2.50;;;;;;;6.56;89.12;100150.30;1693814;82;25875;-78
2020/12/23 04:15:20;;;;;;;5.50;2.33;;;;;;;6.51;89.15;100146.02;1695869;82;25751;-79
2020/12/23 04:17:47;;;;;;;4.50;2.05;;;;;;;6.47;88.99;100149.39;1684778;84;26428;-79
2020/12/23 04:20:13;;;;;;;8.03;2.85;;;;;;;6.42;88.85;100149.81;1694556;83;25867;-79
2020/12/23 04:22:40;;;;;;;7.25;2.60;;;;;;;6.33;88.70;100149.84;1692507;82;25698;-78
2020/12/23 04:25:08;;;;;;;4.20;2.30;;;;;;;6.29;88.91;100146.72;1695778;82;25748;-78
2020/12/23 04:27:35;;;;;;;4.40;2.98;;;;;;;6.26;88.81;100156.09;1695921;83;25752;-79
2020/12/23 04:30:05;;;;;;;6.90;2.87;;;;;;;6.21;88.82;100161.70;1707710;82;25779;-79
2020/12/23 04:32:31;;;;;;;7.50;3.27;;;;;;;6.19;88.90;100159.75;1708124;82;25710;-78
2020/12/23 04:35:01;;;;;;;6.65;3.10;;;;;;;6.17;88.97;100163.44;1693524;82;25747;-79
2020/12/23 04:37:26;;;;;;;7.25;2.83;;;;;;;6.14;88.87;100168.43;1697776;84;26226;-79
2020/12/23 04:39:52;;;;;;;5.93;2.67;;;;;;;6.10;88.77;100180.52;1697898;82;26268;-78
2020/12/23 04:42:42;;;;;;;7.70;3.10;;;;;;;6.04;88.62;100184.50;1685011;82;25792;-78
2020/12/23 04:45:09;;;;;;;5.25;2.35;;;;;;;5.98;88.76;100185.87;1695744;82;25906;-78
2020/12/23 04:47:37;;;;;;;4.15;2.70;;;;;;;5.93;88.79;100188.06;1696995;84;25886;-78
2020/12/23 04:50:05;;;;;;;4.90;2.90;;;;;;;5.89;88.91;100194.47;1696985;84;25763;-78
2020/12/23 04:52:33;;;;;;;6.80;3.27;;;;;;;5.89;89.04;100203.55;1694427;82;25933;-78
2020/12/23 04:55:04;;;;;;;6.87;3.50;;;;;;;5.88;89.11;100208.38;1696875;82;25695;-78
2020/12/23 04:57:30;;;;;;;4.95;2.72;;;;;;;5.87;89.18;100209.34;1697907;82;25786;-78
2020/12/23 04:59:57;;;;;;;7.35;3.40;;;;;;;5.87;89.18;100207.23;1697372;84;25781;-78
2020/12/23 05:02:52;;;;;;;8.40;3.50;;;;;;;5.84;89.19;100207.48;1695423;82;25784;-78
2020/12/23 05:05:18;;;;;;;6.17;3.50;;;;;;;5.86;89.35;100214.66;1696615;82;26407;-78
2020/12/23 05:07:48;;;;;;;8.33;4.50;;;;;;;5.87;89.32;100211.94;1694513;82;25792;-78
2020/12/23 05:10:15;;;;;;;9.75;4.80;;;;;;;5.86;89.23;100206.87;1696690;82;26692;-78
2020/12/23 05:12:42;;;;;;;9.00;4.33;;;;;;;5.87;89.21;100214.53;1687661;84;26612;-79
2020/12/23 05:15:09;;;;;;;8.48;4.28;;;;;;;5.88;89.24;100223.94;1675038;84;26309;-78
2020/12/23 05:17:35;;;;;;;9.90;4.12;;;;;;;5.89;89.16;100220.41;1678594;85;25897;-79
2020/12/23 05:20:04;;;;;;;6.87;3.65;;;;;;;5.89;89.02;100220.86;1677487;83;25794;-79
2020/12/23 05:22:30;;;;;;;7.62;3.90;;;;;;;5.85;88.85;100214.33;1674737;84;26339;-78
2020/12/23 05:25:00;;;;;;;7.87;3.70;;;;;;;5.82;88.85;100216.72;1656224;85;25812;-78
2020/12/23 05:27:26;;;;;;;11.13;4.37;;;;;;;5.81;88.76;100211.20;1655825;84;25831;-79
2020/12/23 05:29:53;;;;;;;8.78;3.20;;;;;;;5.81;88.64;100222.02;1673100;84;25718;-78
2020/12/23 05:32:22;;;;;;;8.45;3.77;;;;;;;5.77;88.55;100231.38;1666109;84;25881;-78
2020/12/23 05:34:51;;;;;;;7.80;4.00;;;;;;;5.74;88.48;100244.63;1677046;83;25693;-79
2020/12/23 05:37:21;;;;;;;8.40;3.98;;;;;;;5.70;88.15;100238.09;1677771;85;26256;-79
2020/12/23 05:39:48;;;;;;;11.93;4.33;;;;;;;5.66;88.26;100231.52;1674998;84;26293;-79
2020/12/23 05:42:17;;;;;;;10.85;6.05;;;;;;;5.69;88.29;100248.59;1673977;83;25883;-78
2020/12/23 05:44:55;;;;;;;12.33;5.90;;;;;;;5.68;88.12;100249.55;1676551;84;25755;-78
2020/12/23 05:47:26;;;;;;;9.88;4.55;;;;;;;5.66;87.85;100259.23;1678616;84;25773;-79
2020/12/23 05:49:54;;;;;;;7.17;4.12;;;;;;;5.58;87.75;100246.94;1676964;83;25945;-78
2020/12/23 05:52:22;;;;;;;15.78;4.80;;;;;;;5.51;87.66;100257.05;1677240;84;25805;-79
2020/12/23 05:54:53;;;;;;;9.85;4.20;;;;;;;5.50;87.66;100268.34;1678752;84;26410;-78
2020/12/23 05:57:20;;;;;;;8.43;3.22;;;;;;;5.48;87.64;100259.06;1677543;84;26269;-78
2020/12/23 05:59:47;;;;;;;8.78;3.58;;;;;;;5.46;87.29;100267.47;1676401;84;25843;-79
2020/12/23 06:02:14;;;;;;;9.30;4.35;;;;;;;5.46;87.49;100271.36;1677724;83;26467;-78
2020/12/23 06:04:44;;;;;;;8.65;3.37;;;;;;;5.47;87.14;100268.62;1667568;85;25820;-78
2020/12/23 06:07:12;;;;;;;9.18;3.80;;;;;;;5.47;87.11;100269.10;1678513;83;26439;-79
2020/12/23 06:09:48;;;;;;;10.13;3.70;;;;;;;5.42;86.90;100273.86;1675429;84;26714;-79
2020/12/23 06:12:19;;;;;;;9.40;4.08;;;;;;;5.38;86.95;100268.63;1677529;84;25882;-79
2020/12/23 06:15:00;;;;;;;9.73;5.05;;;;;;;5.38;87.12;100281.09;1692029;83;25787;-79
2020/12/23 06:17:27;;;;;;;13.05;5.92;;;;;;;5.36;87.00;100282.18;1695284;83;26401;-78
2020/12/23 06:19:57;;;;;;;11.93;5.78;;;;;;;5.36;87.13;100286.06;1695726;83;26450;-79
2020/12/23 06:22:27;;;;;;;17.00;7.75;;;;;;;5.36;87.06;100293.84;1696071;83;33780;-79
2020/12/23 06:24:53;;;;;;;17.20;8.33;;;;;;;5.33;87.01;100303.99;1692717;83;25781;-78
2020/12/23 06:27:20;;;;;;;15.28;7.03;;;;;;;5.32;87.09;100299.78;1692918;83;26447;-78
2020/12/23 06:29:48;;;;;;;14.93;7.03;;;;;;;5.31;87.02;100298.12;1690505;83;26438;-79
2020/12/23 06:32:22;;;;;;;16.77;7.15;;;;;;;5.30;86.86;100301.67;1693735;83;25811;-79
2020/12/23 06:34:58;;;;;;;17.40;6.33;;;;;;;5.27;86.87;100302.75;1692945;83;25769;-78
2020/12/23 06:37:31;;;;;;;18.20;6.83;;;;;;;5.25;86.81;100305.13;1693376;83;25826;-79
2020/12/23 06:39:59;;;;;;;17.95;7.60;;;;;;;5.21;86.83;100297.27;1694006;83;25818;-79
2020/12/23 06:42:29;;;;;;;16.40;8.58;;;;;;;5.20;86.89;100299.52;1696061;83;25671;-79
2020/12/23 06:45:03;;;;;;;12.50;6.87;;;;;;;5.18;86.90;100287.98;1693888;83;27031;-79
2020/12/23 06:47:32;;;;;;;11.10;6.10;;;;;;;5.20;86.88;100284.79;1696127;83;26202;-78
2020/12/23 06:50:22;;;;;;;17.53;6.23;;;;;;;5.21;86.72;100279.97;1693807;83;25845;-78
2020/12/23 06:52:49;;;;;;;12.73;7.00;;;;;;;5.21;86.66;100277.83;1692643;82;25948;-78
2020/12/23 06:55:17;;;;;;;16.82;5.90;;;;;;;5.23;86.74;100287.59;1695776;83;25700;-79
2020/12/23 06:57:46;;;;;;;14.23;5.53;;;;;;;5.25;86.64;100289.59;1692387;83;26588;-80
2020/12/23 07:00:23;;;;;;;10.00;4.90;;;;;;;5.23;86.40;100292.77;1695176;83;25825;-81
2020/12/23 07:03:05;;;;;;;11.73;5.58;;;;;;;5.21;86.37;100303.29;1695413;83;26280;-80
2020/12/23 07:05:36;;;;;;;16.95;7.72;;;;;;;5.18;86.33;100309.19;1694793;83;25730;-80
2020/12/23 07:08:07;;;;;;;19.92;8.08;;;;;;;5.15;86.35;100304.27;1693532;83;25870;-81
2020/12/23 07:10:44;;;;;;;17.75;7.42;;;;;;;5.13;86.26;100310.90;1691224;83;25791;-80
2020/12/23 07:13:22;;;;;;;21.20;7.80;;;;;;;5.09;86.00;100315.98;1694715;82;26284;-81
2020/12/23 07:15:59;;;;;;;18.37;8.60;;;;;;;5.06;86.15;100307.99;1694604;82;25930;-80
2020/12/23 07:18:30;;;;;;;17.92;8.58;;;;;;;5.08;86.09;100311.28;1693704;83;26334;-80
2020/12/23 07:21:07;;;;;;;20.65;9.28;;;;;;;5.10;86.18;100317.16;1692341;83;25679;-80
2020/12/23 07:23:34;;;;;;;18.62;8.35;;;;;;;5.17;86.29;100316.62;1692152;83;25800;-78
2020/12/23 07:26:05;;;;;;;19.15;8.40;;;;;;;5.18;86.17;100326.03;1691329;83;25801;-79
2020/12/23 07:28:39;;;;;;;19.17;7.62;;;;;;;5.19;86.12;100332.39;1694272;83;26353;-78
2020/12/23 07:31:07;;;;;;;22.95;9.38;;;;;;;5.18;86.09;100334.61;1701393;83;25652;-78
2020/12/23 07:33:37;;;;;;;19.52;8.70;;;;;;;5.14;86.14;100342.31;1711180;83;25768;-78
2020/12/23 07:36:04;;;;;;;22.75;10.50;;;;;;;5.12;86.38;100338.55;1693800;83;25693;-78
2020/12/23 07:38:35;;;;;;;23.22;10.75;;;;;;;5.09;86.39;100347.88;1693835;83;26441;-78
2020/12/23 07:41:02;;;;;;;24.25;9.78;;;;;;;4.99;86.36;100344.45;1693530;82;26306;-78
2020/12/23 07:43:29;;;;;;;20.17;9.98;;;;;;;4.94;86.60;100354.82;1692088;83;25849;-78
2020/12/23 07:45:56;;;;;;;23.38;9.25;;;;;;;4.87;86.78;100351.45;1693203;83;25830;-78
2020/12/23 07:48:25;;;;;;;23.07;11.25;;;;;;;4.89;87.05;100349.56;1684397;84;26410;-78
2020/12/23 07:50:55;;;;;;;21.93;11.03;;;;;;;4.87;87.11;100350.64;1695858;83;26351;-78
2020/12/23 07:53:30;;;;;;;20.52;12.00;;;;;;;4.85;87.25;100347.35;1695271;83;26001;-78
2020/12/23 07:56:05;;;;;;;22.10;10.28;;;;;;;4.87;87.41;100344.17;1693491;83;26558;-77
2020/12/23 07:58:35;;;;;;;20.25;11.43;;;;;;;4.90;87.54;100341.31;1698356;83;25798;-78
2020/12/23 08:01:02;;;;;;;20.00;10.98;;;;;;;4.92;87.68;100343.31;1696814;83;26281;-78
2020/12/23 08:03:31;;;;;;;18.50;12.00;;;;;;;4.94;87.67;100350.48;1675086;84;25878;-78
2020/12/23 08:06:12;;;;;;;20.02;13.10;;;;;;;4.96;87.69;100351.63;1696585;84;25680;-78
2020/12/23 08:08:41;;;;;;;16.55;10.20;;;;;;;4.91;87.63;100357.22;1685141;83;25785;-78
2020/12/23 08:11:15;;;;;;;14.43;8.10;;;;;;;4.88;87.70;100352.27;1697012;84;25595;-78
2020/12/23 08:13:43;;;;;;;14.60;6.00;;;;;;;4.82;87.77;100359.27;1695411;83;26283;-79
2020/12/23 08:16:15;;;;;;;13.43;6.60;;;;;;;4.81;88.01;100365.41;1656753;84;25697;-78
2020/12/23 08:18:43;;;;;;;10.43;5.85;;;;;;;4.82;88.06;100364.45;1679479;84;25753;-78
2020/12/23 08:21:17;;;;;;;14.63;6.40;;;;;;;4.88;88.15;100367.81;1667468;85;25678;-78
2020/12/23 08:23:47;;;;;;;11.28;5.53;;;;;;;4.89;88.14;100368.17;1672789;83;25872;-78
2020/12/23 08:26:15;;;;;;;10.93;5.70;;;;;;;4.89;88.12;100363.81;1672613;84;25715;-78
2020/12/23 08:28:43;;;;;;;14.78;5.67;;;;;;;4.89;88.09;100366.41;1678400;84;25814;-78
2020/12/23 08:31:27;;;;;;;11.83;5.17;;;;;;;4.92;88.21;100365.33;1659957;84;25769;-79
2020/12/23 08:33:58;;;;;;;14.60;6.03;;;;;;;4.94;88.16;100361.30;1670531;84;25775;-78
2020/12/23 08:36:24;;;;;;;14.10;6.12;;;;;;;4.96;88.23;100361.52;1677480;84;25756;-78
2020/12/23 08:38:52;;;;;;;17.00;6.80;;;;;;;5.00;88.24;100365.50;1679755;85;26356;-78
2020/12/23 08:41:20;;;;;;;16.73;6.40;;;;;;;5.02;88.18;100370.09;1678764;83;25814;-79
2020/12/23 08:43:48;;;;;;;13.35;6.08;;;;;;;5.05;88.12;100370.31;1676716;84;25735;-78
2020/12/23 08:46:24;;;;;;;19.92;7.58;;;;;;;5.07;88.24;100370.53;1674523;84;26578;-78
2020/12/23 08:48:54;;;;;;;16.07;6.62;;;;;;;5.10;88.24;100370.72;1675077;84;25769;-79
2020/12/23 08:51:23;;;;;;;17.48;7.22;;;;;;;5.11;88.21;100368.01;1678351;84;25642;-79
2020/12/23 08:53:54;;;;;;;15.40;7.30;;;;;;;5.19;88.12;100375.62;1676536;84;25848;-78
2020/12/23 08:56:28;;;;;;;23.35;8.50;;;;;;;5.20;88.07;100380.66;1671372;83;26349;-79
2020/12/23 08:59:02;;;;;;;14.65;6.33;;;;;;;5.24;88.14;100378.64;1665742;84;25733;-79
2020/12/23 09:01:31;;;;;;;16.12;7.37;;;;;;;5.28;87.93;100379.53;1677095;84;26201;-78
2020/12/23 09:04:11;;;;;;;17.17;7.22;;;;;;;5.29;87.62;100376.00;1679679;84;26433;-79
2020/12/23 09:06:43;;;;;;;14.40;6.95;;;;;;;5.30;87.57;100376.82;1678524;83;25888;-78
2020/12/23 09:09:18;;;;;;;15.32;6.55;;;;;;;5.26;87.37;100369.77;1683497;83;25722;-79
2020/12/23 09:11:49;;;;;;;12.63;5.55;;;;;;;5.19;86.88;100359.59;1680142;83;26231;-79
2020/12/23 09:14:34;;;;;;;9.58;5.55;;;;;;;5.18;87.10;100368.30;1690872;82;25894;-78
2020/12/23 09:17:07;;;;;;;14.58;6.45;;;;;;;5.18;87.25;100367.48;1681285;83;26509;-81
2020/12/23 09:20:01;;;;;;;14.23;6.42;;;;;;;5.21;87.40;100369.81;1685766;83;25665;-78
2020/12/23 09:22:45;;;;;;;16.23;6.12;;;;;;;5.26;87.48;100378.02;1625794;86;25968;-79
2020/12/23 09:25:27;;;;;;;16.12;6.97;;;;;;;5.31;87.26;100378.45;1640817;85;26428;-79
2020/12/23 09:27:55;;;;;;;20.57;9.28;;;;;;;5.31;87.09;100377.16;1608410;87;25844;-78
2020/12/23 09:33:41;;;;;;;16.07;7.45;;;;;;;5.33;87.14;100380.45;1632261;86;25992;-78
2020/12/23 09:36:08;;;;;;;16.80;7.03;;;;;;;5.35;87.00;100374.66;1634620;86;25836;-79
2020/12/23 09:38:35;;;;;;;15.25;7.50;;;;;;;5.35;86.72;100372.07;1635218;86;26659;-79
2020/12/23 09:41:05;;;;;;;22.30;8.45;;;;;;;5.39;87.00;100371.33;1631337;86;25829;-78
2020/12/23 09:43:36;;;;;;;17.62;7.08;;;;;;;5.42;86.97;100379.64;1632334;87;26693;-79
2020/12/23 09:46:08;;;;;;;17.00;9.05;;;;;;;5.40;86.77;100359.55;1635333;86;25810;-79
2020/12/23 09:48:35;;;;;;;24.70;7.75;;;;;;;5.47;86.87;100363.23;1630880;86;25787;-79
2020/12/23 09:51:03;;;;;;;15.68;7.00;;;;;;;5.52;86.56;100366.25;1633970;86;25813;-78
2020/12/23 09:53:29;;;;;;;16.25;7.42;;;;;;;5.53;86.50;100367.06;1637191;86;25679;-78
2020/12/23 09:55:56;;;;;;;16.75;8.63;;;;;;;5.58;86.38;100375.27;1638225;86;25904;-78
2020/12/23 09:58:22;;;;;;;16.45;8.58;;;;;;;5.57;86.36;100373.64;1650504;84;26542;-78
2020/12/23 10:00:51;;;;;;;15.80;7.75;;;;;;;5.58;86.01;100373.97;1663208;84;26311;-79
2020/12/23 10:03:18;;;;;;;15.43;7.55;;;;;;;5.59;86.15;100378.67;1668737;84;25671;-79
2020/12/23 10:05:44;;;;;;;15.83;7.47;;;;;;;5.60;85.91;100379.04;1670407;84;25821;-78
2020/12/23 10:08:11;;;;;;;18.20;8.75;;;;;;;5.61;85.74;100378.08;1669826;84;26503;-79
2020/12/23 10:10:37;;;;;;;15.18;7.80;;;;;;;5.60;85.77;100372.56;1660038;86;25747;-79
2020/12/23 10:13:04;;;;;;;18.90;7.20;;;;;;;5.63;85.60;100364.03;1673106;84;26377;-78
2020/12/23 10:15:30;;;;;;;19.50;9.30;;;;;;;5.66;85.40;100371.54;1657712;84;25878;-78
2020/12/23 10:17:57;;;;;;;17.70;8.83;;;;;;;5.69;85.48;100362.67;1671876;84;25853;-79
2020/12/23 10:20:24;;;;;;;14.18;8.83;;;;;;;5.69;84.65;100364.78;1661891;84;25734;-79
2020/12/23 10:22:50;;;;;;;22.48;9.30;;;;;;;5.66;84.90;100368.12;1668435;84;25799;-78
2020/12/23 10:25:17;;;;;;;16.15;8.35;;;;;;;5.64;84.84;100369.55;1669343;84;26478;-78
2020/12/23 10:27:43;;;;;;;15.58;7.67;;;;;;;5.65;84.99;100369.91;1668710;84;26283;-78
2020/12/23 10:30:10;;;;;;;14.10;6.97;;;;;;;5.65;84.78;100372.50;1675084;84;25752;-78
2020/12/23 10:32:38;;;;;;;19.90;9.00;;;;;;;5.65;84.07;100373.80;1678722;83;26390;-78
2020/12/23 10:35:05;;;;;;;18.52;8.65;;;;;;;5.65;84.45;100375.09;1680412;83;25929;-78
2020/12/23 10:37:31;;;;;;;19.62;10.18;;;;;;;5.66;84.27;100378.50;1686746;83;25922;-78
2020/12/23 10:39:58;;;;;;;18.95;10.10;;;;;;;5.63;83.96;100369.21;1683880;83;25811;-78
2020/12/23 10:42:29;;;;;;;21.48;8.10;;;;;;;5.61;84.09;100377.59;1683532;83;25738;-79
2020/12/23 10:44:56;;;;;;;17.92;8.53;;;;;;;5.56;83.62;100374.12;1682443;83;26397;-78
2020/12/23 10:47:23;;;;;;;17.67;7.65;;;;;;;5.53;84.00;100374.36;1685865;83;25541;-78
2020/12/23 10:49:49;;;;;;;17.80;6.95;;;;;;;5.53;83.96;100373.06;1678582;83;25796;-78
2020/12/23 10:52:16;;;;;;;16.82;7.25;;;;;;;5.52;84.03;100370.14;1677380;83;25772;-78
2020/12/23 10:54:43;;;;;;;18.25;7.92;;;;;;;5.57;84.05;100376.23;1679247;83;25797;-78
2020/12/23 10:57:10;;;;;;;17.92;8.63;;;;;;;5.59;84.19;100376.08;1676278;84;25755;-78
2020/12/23 10:59:37;;;;;;;22.77;8.93;;;;;;;5.59;83.70;100369.13;1678299;83;25872;-79
2020/12/23 11:02:04;;;;;;;15.83;9.25;;;;;;;5.58;83.77;100375.27;1681346;85;25681;-79
2020/12/23 11:04:30;;;;;;;16.15;8.63;;;;;;;5.59;83.86;100371.71;1677199;84;25783;-79
2020/12/23 11:06:57;;;;;;;21.75;8.08;;;;;;;5.59;83.73;100369.60;1683070;83;25803;-79
2020/12/23 11:09:23;;;;;;;14.73;7.12;;;;;;;5.55;83.25;100375.05;1680192;83;25840;-79
2020/12/23 11:11:54;;;;;;;18.17;7.78;;;;;;;5.52;83.18;100366.73;1684514;83;25777;-78
2020/12/23 11:14:21;;;;;;;13.55;5.95;;;;;;;5.53;83.22;100363.17;1679584;84;25707;-78
2020/12/23 11:16:49;;;;;;;14.73;7.35;;;;;;;5.55;83.29;100359.98;1678692;84;25772;-78
2020/12/23 11:19:15;;;;;;;14.33;5.87;;;;;;;5.57;83.37;100356.79;1679707;85;25630;-78
2020/12/23 11:21:43;;;;;;;14.65;6.37;;;;;;;5.59;83.16;100351.45;1680565;83;26281;-78
2020/12/23 11:24:09;;;;;;;18.25;6.25;;;;;;;5.61;83.19;100351.67;1679381;83;25581;-78
2020/12/23 11:26:36;;;;;;;14.28;7.22;;;;;;;5.62;82.55;100353.78;1680484;83;25511;-79
2020/12/23 11:29:04;;;;;;;14.33;6.40;;;;;;;5.58;82.65;100359.72;1687879;83;25639;-77
2020/12/23 11:31:31;;;;;;;14.18;6.00;;;;;;;5.58;82.90;100364.09;1685190;83;25533;-78
2020/12/23 11:33:59;;;;;;;14.03;5.53;;;;;;;5.62;82.85;100364.15;1691553;83;26405;-78
2020/12/23 11:39:01;;;;;;;17.00;7.90;;;;;;;5.76;82.91;100358.13;1791517;78;26090;-77
2020/12/23 11:41:28;;;;;;;14.40;7.20;;;;;;;5.78;83.09;100359.27;1792391;78;25764;-80
2020/12/23 11:43:55;;;;;;;13.43;7.15;;;;;;;5.87;82.85;100355.08;1780195;79;25747;-80
2020/12/23 11:46:21;;;;;;;11.60;6.00;;;;;;;5.89;82.20;100356.58;1771109;80;26297;-80
2020/12/23 11:48:48;;;;;;;16.62;6.28;;;;;;;5.87;81.77;100359.78;1771283;78;25772;-80
2020/12/23 11:51:14;;;;;;;18.90;6.62;;;;;;;5.89;82.04;100376.03;1772140;78;25670;-80
2020/12/23 11:53:42;;;;;;;12.35;6.60;;;;;;;5.94;82.03;100374.34;1776709;78;26042;-80
2020/12/23 11:56:08;;;;;;;14.95;6.30;;;;;;;5.95;82.11;100372.11;1778533;78;25842;-80
2020/12/23 11:58:35;;;;;;;14.20;6.50;;;;;;;5.98;81.53;100362.28;1778710;78;26554;-80
2020/12/23 12:01:01;;;;;;;16.48;6.65;;;;;;;5.96;81.15;100360.77;1777259;78;25834;-79